createdAt,value
2022-08-26T00:00:19.768Z,56.45
2022-08-26T00:02:49.255Z,56.56
2022-08-26T00:05:17.474Z,56.73
2022-08-26T00:07:45.796Z,56.67
2022-08-26T00:10:13.870Z,56.74
2022-08-26T00:12:42.506Z,56.88
2022-08-26T00:15:14.693Z,56.81
2022-08-26T00:17:43.013Z,57.03
2022-08-26T00:20:14.314Z,57.06
2022-08-26T00:22:42.379Z,57.20
2022-08-26T00:25:12.170Z,57.22
2022-08-26T00:27:40.446Z,57.45
2022-08-26T00:30:11.873Z,57.54
2022-08-26T00:32:40.008Z,57.10
2022-08-26T00:35:13.500Z,57.31
2022-08-26T00:37:42.695Z,57.30
2022-08-26T00:40:15.005Z,57.42
2022-08-26T00:42:46.032Z,57.30
2022-08-26T00:45:14.689Z,57.39
2022-08-26T00:47:47.039Z,57.53
2022-08-26T00:50:23.012Z,57.66
2022-08-26T00:52:51.701Z,57.54
2022-08-26T00:55:24.876Z,57.76
2022-08-26T00:58:03.361Z,57.69
2022-08-26T01:00:32.942Z,57.67
2022-08-26T01:03:03.145Z,57.84
2022-08-26T01:05:34.604Z,57.79
2022-08-26T01:08:03.685Z,57.90
2022-08-26T01:10:32.293Z,58.06
2022-08-26T01:13:04.142Z,57.92
2022-08-26T01:15:36.613Z,57.99
2022-08-26T01:18:05.858Z,57.89
2022-08-26T01:20:42.952Z,57.97
2022-08-26T01:23:13.197Z,58.09
2022-08-26T01:25:45.650Z,57.98
2022-08-26T01:28:17.659Z,58.11
2022-08-26T01:30:47.524Z,58.04
2022-08-26T01:33:20.282Z,57.94
2022-08-26T01:35:49.147Z,58.06
2022-08-26T01:38:19.217Z,57.98
2022-08-26T01:40:47.952Z,57.96
2022-08-26T01:43:22.953Z,58.04
2022-08-26T01:45:54.620Z,58.12
2022-08-26T01:48:29.789Z,58.27
2022-08-26T01:50:57.776Z,58.23
2022-08-26T01:53:27.903Z,57.95
2022-08-26T01:55:59.955Z,58.25
2022-08-26T01:58:33.953Z,58.18
2022-08-26T02:01:03.515Z,58.25
2022-08-26T02:03:32.897Z,58.29
2022-08-26T02:06:09.344Z,58.48
2022-08-26T02:08:42.821Z,58.46
2022-08-26T02:11:11.523Z,58.98
2022-08-26T02:13:42.826Z,58.47
2022-08-26T02:16:12.128Z,58.77
2022-08-26T02:18:43.090Z,58.79
2022-08-26T02:21:12.611Z,58.76
2022-08-26T02:23:42.631Z,58.88
2022-08-26T02:26:17.875Z,58.93
2022-08-26T02:28:55.375Z,59.43
2022-08-26T02:31:23.843Z,59.32
2022-08-26T02:33:51.891Z,59.35
2022-08-26T02:36:21.954Z,59.46
2022-08-26T02:38:52.071Z,59.50
2022-08-26T02:41:20.297Z,59.45
2022-08-26T02:43:51.131Z,59.49
2022-08-26T02:46:21.548Z,59.32
2022-08-26T02:48:58.024Z,59.27
2022-08-26T02:51:26.486Z,59.39
2022-08-26T02:53:55.912Z,59.65
2022-08-26T02:56:24.179Z,59.59
2022-08-26T02:58:52.309Z,59.55
2022-08-26T03:01:27.709Z,59.58
2022-08-26T03:03:57.106Z,59.95
2022-08-26T03:06:25.630Z,59.76
2022-08-26T03:08:55.809Z,59.94
2022-08-26T03:11:25.531Z,60.13
2022-08-26T03:13:56.568Z,60.03
2022-08-26T03:16:24.760Z,59.98
2022-08-26T03:19:01.134Z,59.88
2022-08-26T03:21:29.637Z,59.79
2022-08-26T03:23:59.497Z,59.83
2022-08-26T03:26:29.599Z,59.93
2022-08-26T03:29:15.620Z,60.06
2022-08-26T03:31:47.098Z,60.21
2022-08-26T03:34:15.505Z,60.22
2022-08-26T03:36:43.671Z,60.30
2022-08-26T03:39:14.481Z,60.01
2022-08-26T03:41:46.019Z,60.23
2022-08-26T03:44:14.616Z,60.40
2022-08-26T03:46:42.644Z,60.38
2022-08-26T03:49:12.190Z,60.37
2022-08-26T03:51:40.241Z,60.51
2022-08-26T03:54:10.607Z,60.62
2022-08-26T03:56:40.231Z,60.77
2022-08-26T03:59:08.251Z,60.84
2022-08-26T04:01:36.885Z,60.84
2022-08-26T04:04:06.506Z,61.35
2022-08-26T04:06:38.226Z,60.98
2022-08-26T04:09:09.342Z,60.87
2022-08-26T04:11:39.708Z,61.14
2022-08-26T04:14:09.947Z,61.23
2022-08-26T04:16:38.887Z,61.17
2022-08-26T04:19:07.417Z,61.27
2022-08-26T04:21:35.722Z,61.24
2022-08-26T04:24:04.233Z,61.91
2022-08-26T04:26:37.075Z,62.00
2022-08-26T04:29:11.844Z,61.79
2022-08-26T04:31:42.767Z,61.38
2022-08-26T04:34:11.712Z,61.05
2022-08-26T04:36:42.981Z,61.09
2022-08-26T04:39:14.940Z,61.55
2022-08-26T04:41:42.810Z,61.21
2022-08-26T04:44:12.660Z,61.53
2022-08-26T04:46:40.657Z,61.73
2022-08-26T04:49:12.626Z,61.97
2022-08-26T04:51:41.195Z,62.20
2022-08-26T04:54:14.096Z,61.83
2022-08-26T04:56:47.272Z,61.89
2022-08-26T04:59:19.410Z,61.97
2022-08-26T05:01:50.385Z,62.50
2022-08-26T05:04:20.501Z,62.47
2022-08-26T05:06:48.667Z,62.31
2022-08-26T05:09:18.457Z,62.47
2022-08-26T05:11:52.216Z,62.72
2022-08-26T05:14:23.086Z,67.71
2022-08-26T05:16:51.087Z,62.15
2022-08-26T05:19:19.648Z,61.79
2022-08-26T05:21:49.268Z,61.76
2022-08-26T05:24:18.045Z,61.57
2022-08-26T05:26:47.173Z,61.72
2022-08-26T05:29:16.719Z,61.58
2022-08-26T05:31:46.251Z,61.70
2022-08-26T05:34:15.415Z,61.60
2022-08-26T05:36:46.073Z,61.86
2022-08-26T05:39:14.187Z,61.33
2022-08-26T05:41:44.844Z,61.51
2022-08-26T05:44:15.295Z,61.63
2022-08-26T05:46:44.662Z,61.47
2022-08-26T05:49:16.541Z,61.50
2022-08-26T05:51:47.693Z,61.34
2022-08-26T05:54:21.237Z,61.61
2022-08-26T05:56:50.641Z,61.77
2022-08-26T05:59:23.911Z,62.17
2022-08-26T06:01:53.081Z,62.13
2022-08-26T06:04:24.874Z,62.55
2022-08-26T06:06:55.559Z,62.80
2022-08-26T06:09:23.591Z,63.00
2022-08-26T06:11:52.192Z,62.49
2022-08-26T06:14:21.756Z,62.13
2022-08-26T06:16:49.873Z,62.33
2022-08-26T06:19:19.527Z,62.26
2022-08-26T06:21:54.729Z,62.15
2022-08-26T06:24:41.484Z,62.64
2022-08-26T06:27:13.890Z,62.89
2022-08-26T06:29:44.310Z,63.04
2022-08-26T06:32:12.645Z,62.95
2022-08-26T06:34:41.813Z,62.51
2022-08-26T06:37:11.238Z,62.36
2022-08-26T06:39:41.228Z,62.42
2022-08-26T06:42:10.863Z,62.32
2022-08-26T06:44:44.658Z,62.23
2022-08-26T06:47:12.686Z,62.01
2022-08-26T06:49:42.770Z,61.21
2022-08-26T06:52:13.787Z,61.69
2022-08-26T06:54:48.026Z,61.85
2022-08-26T06:57:16.775Z,62.41
2022-08-26T06:59:44.766Z,62.56
2022-08-26T07:02:13.540Z,62.20
2022-08-26T07:04:42.105Z,62.45
2022-08-26T07:07:14.234Z,62.30
2022-08-26T07:09:43.793Z,62.06
2022-08-26T07:12:14.640Z,62.01
2022-08-26T07:14:47.441Z,61.51
2022-08-26T07:17:16.581Z,61.10
2022-08-26T07:19:44.486Z,61.24
2022-08-26T07:22:12.547Z,61.32
2022-08-26T07:24:42.455Z,61.65
2022-08-26T07:27:17.223Z,61.89
2022-08-26T07:29:46.104Z,62.05
2022-08-26T07:32:17.085Z,61.86
2022-08-26T07:34:46.893Z,61.49
2022-08-26T07:37:15.315Z,60.81
2022-08-26T07:39:47.619Z,60.39
2022-08-26T07:42:20.464Z,60.77
2022-08-26T07:44:56.297Z,60.83
2022-08-26T07:47:35.564Z,60.71
2022-08-26T07:50:03.763Z,60.58
2022-08-26T07:52:34.429Z,60.73
2022-08-26T07:55:04.441Z,61.16
2022-08-26T07:57:37.451Z,60.94
2022-08-26T08:00:14.104Z,60.01
2022-08-26T08:02:47.789Z,59.74
2022-08-26T08:05:21.304Z,59.29
2022-08-26T08:07:53.521Z,59.55
2022-08-26T08:10:30.073Z,59.87
2022-08-26T08:13:02.165Z,59.40
2022-08-26T08:15:33.159Z,59.88
2022-08-26T08:18:06.844Z,60.46
2022-08-26T08:21:04.796Z,60.50
2022-08-26T08:23:35.866Z,60.03
2022-08-26T08:26:05.558Z,59.24
2022-08-26T08:28:37.323Z,58.24
2022-08-26T08:31:08.764Z,57.74
2022-08-26T08:33:36.659Z,57.90
2022-08-26T08:36:09.746Z,58.53
2022-08-26T08:38:46.862Z,57.80
2022-08-26T08:41:45.024Z,58.42
2022-08-26T08:44:20.049Z,59.08
2022-08-26T08:46:53.608Z,59.23
2022-08-26T08:49:22.710Z,59.13
2022-08-26T08:51:56.534Z,60.00
2022-08-26T08:54:26.398Z,62.91
2022-08-26T08:57:02.817Z,60.36
2022-08-26T08:59:35.707Z,60.36
2022-08-26T09:02:14.760Z,60.37
2022-08-26T09:04:57.497Z,59.98
2022-08-26T09:07:36.754Z,59.75
2022-08-26T09:10:30.291Z,59.71
2022-08-26T09:12:58.899Z,59.21
2022-08-26T09:15:37.485Z,59.19
2022-08-26T09:18:18.504Z,58.47
2022-08-26T09:20:53.737Z,58.45
2022-08-26T09:23:24.240Z,57.60
2022-08-26T09:25:59.359Z,57.62
2022-08-26T09:28:31.086Z,57.81
2022-08-26T09:31:23.379Z,58.56
2022-08-26T09:34:07.214Z,58.11
2022-08-26T09:36:41.379Z,57.83
2022-08-26T09:39:29.421Z,58.07
2022-08-26T09:42:11.908Z,58.13
2022-08-26T09:44:57.182Z,58.22
2022-08-26T09:47:40.576Z,57.79
2022-08-26T09:50:23.551Z,57.59
2022-08-26T09:53:15.932Z,57.40
2022-08-26T09:55:47.647Z,57.06
2022-08-26T09:58:32.183Z,57.46
2022-08-26T10:01:02.353Z,58.44
2022-08-26T10:03:50.307Z,57.33
2022-08-26T10:06:28.525Z,57.23
2022-08-26T10:09:00.209Z,56.76
2022-08-26T10:11:38.285Z,56.41
2022-08-26T10:14:16.773Z,56.54
2022-08-26T10:16:54.496Z,56.58
2022-08-26T10:19:55.647Z,56.61
2022-08-26T10:22:21.958Z,56.40
2022-08-26T10:24:55.317Z,55.99
2022-08-26T10:27:37.504Z,55.93
2022-08-26T10:30:11.567Z,55.57
2022-08-26T10:32:43.151Z,55.16
2022-08-26T10:35:16.348Z,55.16
2022-08-26T10:37:47.839Z,55.18
2022-08-26T10:40:21.321Z,55.00
2022-08-26T10:42:56.397Z,55.05
2022-08-26T10:45:27.670Z,54.91
2022-08-26T10:48:07.775Z,54.55
2022-08-26T10:50:39.672Z,54.08
2022-08-26T10:53:18.051Z,52.27
2022-08-26T10:55:55.907Z,53.88
2022-08-26T10:58:35.941Z,53.54
2022-08-26T11:01:34.947Z,53.68
2022-08-26T11:04:17.989Z,53.36
2022-08-26T11:06:47.810Z,53.10
2022-08-26T11:09:50.142Z,53.10
2022-08-26T11:12:59.888Z,52.53
2022-08-26T11:16:10.301Z,52.47
2022-08-26T11:18:48.750Z,53.37
2022-08-26T11:21:49.562Z,50.70
2022-08-26T11:25:00.504Z,53.56
2022-08-26T11:27:59.536Z,52.84
2022-08-26T11:30:47.703Z,52.72
2022-08-26T11:33:54.653Z,52.98
2022-08-26T11:36:53.421Z,52.63
2022-08-26T11:39:25.872Z,53.37
2022-08-26T11:42:00.200Z,53.31
2022-08-26T11:44:39.598Z,53.56
2022-08-26T11:47:11.820Z,53.13
2022-08-26T11:49:39.951Z,52.96
2022-08-26T11:52:17.319Z,52.55
2022-08-26T11:55:06.498Z,52.18
2022-08-26T11:57:43.070Z,52.13
2022-08-26T12:00:16.815Z,52.00
2022-08-26T12:02:49.535Z,52.08
2022-08-26T12:05:29.576Z,51.67
2022-08-26T12:08:05.220Z,51.61
2022-08-26T12:10:37.831Z,51.69
2022-08-26T12:13:26.342Z,51.00
2022-08-26T12:15:59.862Z,51.31
2022-08-26T12:18:32.459Z,51.63
2022-08-26T12:21:03.187Z,51.76
2022-08-26T12:23:43.394Z,51.64
2022-08-26T12:26:21.846Z,51.84
2022-08-26T12:28:58.510Z,52.42
2022-08-26T12:31:30.316Z,52.36
2022-08-26T12:34:00.994Z,51.85
2022-08-26T12:36:42.340Z,51.06
2022-08-26T12:39:15.419Z,51.73
2022-08-26T12:41:50.918Z,51.70
2022-08-26T12:44:54.349Z,48.56
2022-08-26T12:47:30.957Z,52.49
2022-08-26T12:50:22.374Z,52.33
2022-08-26T12:53:00.504Z,52.16
2022-08-26T12:55:41.408Z,51.68
2022-08-26T12:58:28.944Z,52.63
2022-08-26T13:01:20.299Z,52.72
2022-08-26T13:03:56.110Z,52.75
2022-08-26T13:06:29.909Z,51.74
2022-08-26T13:09:00.244Z,51.46
2022-08-26T13:11:30.545Z,51.12
2022-08-26T13:14:01.064Z,50.81
2022-08-26T13:16:34.825Z,47.13
2022-08-26T13:19:10.102Z,50.69
2022-08-26T13:21:44.754Z,51.46
2022-08-26T13:24:15.370Z,51.68
2022-08-26T13:26:45.833Z,52.82
2022-08-26T13:29:18.303Z,53.50
2022-08-26T13:31:51.579Z,53.52
2022-08-26T13:34:21.215Z,49.93
2022-08-26T13:36:50.494Z,53.89
2022-08-26T13:39:19.072Z,53.59
2022-08-26T13:41:47.878Z,53.75
2022-08-26T13:44:27.400Z,53.71
2022-08-26T13:46:56.943Z,53.20
2022-08-26T13:49:37.641Z,53.14
2022-08-26T13:52:06.058Z,53.22
2022-08-26T13:54:41.546Z,53.27
2022-08-26T13:57:09.841Z,52.80
2022-08-26T13:59:37.867Z,52.85
2022-08-26T14:02:12.485Z,52.39
2022-08-26T14:04:40.560Z,52.27
2022-08-26T14:07:08.973Z,52.43
2022-08-26T14:09:38.464Z,52.20
2022-08-26T14:12:09.510Z,52.24
2022-08-26T14:14:37.655Z,52.31
2022-08-26T14:17:09.789Z,51.28
2022-08-26T14:19:38.247Z,51.59
2022-08-26T14:22:06.397Z,51.42
2022-08-26T14:24:52.294Z,51.39
2022-08-26T14:27:20.298Z,50.61
2022-08-26T14:29:48.539Z,50.76
2022-08-26T14:32:23.986Z,50.58
2022-08-26T14:34:52.302Z,51.23
2022-08-26T14:37:20.833Z,51.78
2022-08-26T14:39:52.970Z,51.03
2022-08-26T14:42:27.903Z,51.06
2022-08-26T14:45:03.115Z,51.06
2022-08-26T14:47:31.221Z,50.65
2022-08-26T14:50:02.127Z,50.28
2022-08-26T14:52:50.038Z,49.58
2022-08-26T14:55:18.892Z,49.33
2022-08-26T14:57:46.810Z,49.79
2022-08-26T15:00:15.734Z,50.11
2022-08-26T15:02:44.138Z,50.68
2022-08-26T15:05:13.202Z,51.08
2022-08-26T15:07:41.740Z,51.29
2022-08-26T15:10:13.929Z,50.89
2022-08-26T15:12:43.578Z,51.30
2022-08-26T15:15:18.537Z,52.34
2022-08-26T15:17:46.828Z,52.79
2022-08-26T15:20:17.509Z,53.22
2022-08-26T15:22:47.070Z,52.92
2022-08-26T15:25:15.986Z,52.26
2022-08-26T15:27:45.985Z,52.15
2022-08-26T15:30:14.462Z,51.96
2022-08-26T15:32:43.024Z,51.79
2022-08-26T15:35:11.743Z,51.63
2022-08-26T15:37:40.128Z,51.61
2022-08-26T15:40:09.860Z,51.85
2022-08-26T15:42:42.473Z,52.53
2022-08-26T15:45:12.597Z,52.57
2022-08-26T15:48:00.968Z,52.74
2022-08-26T15:50:30.155Z,53.18
2022-08-26T15:52:59.655Z,53.40
2022-08-26T15:55:28.300Z,53.56
2022-08-26T15:57:56.372Z,53.38
2022-08-26T16:00:27.148Z,53.48
2022-08-26T16:02:55.004Z,53.49
2022-08-26T16:05:23.037Z,53.53
2022-08-26T16:07:50.998Z,53.82
2022-08-26T16:10:22.190Z,53.90
2022-08-26T16:12:50.124Z,54.25
2022-08-26T16:15:23.844Z,54.60
2022-08-26T16:17:53.164Z,54.71
2022-08-26T16:20:21.236Z,54.73
2022-08-26T16:22:49.276Z,54.81
2022-08-26T16:25:19.565Z,54.75
2022-08-26T16:27:50.372Z,55.04
2022-08-26T16:30:19.378Z,55.14
2022-08-26T16:32:47.392Z,55.49
2022-08-26T16:35:19.355Z,55.77
2022-08-26T16:37:50.743Z,56.56
2022-08-26T16:40:19.157Z,56.46
2022-08-26T16:42:47.588Z,56.55
2022-08-26T16:45:18.636Z,56.33
2022-08-26T16:47:53.263Z,55.89
2022-08-26T16:50:24.295Z,56.07
2022-08-26T16:52:57.351Z,56.19
2022-08-26T16:55:27.348Z,57.14
2022-08-26T16:57:57.848Z,57.55
2022-08-26T17:00:31.870Z,57.49
2022-08-26T17:03:01.349Z,57.01
2022-08-26T17:05:33.314Z,58.41
2022-08-26T17:08:01.792Z,61.00
2022-08-26T17:10:31.200Z,62.47
2022-08-26T17:12:59.454Z,62.65
2022-08-26T17:15:29.645Z,62.50
2022-08-26T17:18:00.841Z,61.97
2022-08-26T17:20:30.433Z,61.72
2022-08-26T17:22:58.977Z,61.13
2022-08-26T17:25:28.694Z,60.48
2022-08-26T17:30:30.891Z,59.64
2022-08-26T17:32:59.048Z,59.30
2022-08-26T17:35:27.686Z,59.41
2022-08-26T17:38:04.600Z,59.62
2022-08-26T17:40:32.717Z,59.61
2022-08-26T17:43:00.717Z,59.32
2022-08-26T17:45:31.543Z,59.87
2022-08-26T17:48:06.556Z,60.65
2022-08-26T17:50:34.574Z,60.80
2022-08-26T17:53:04.191Z,61.51
2022-08-26T17:55:32.086Z,62.68
2022-08-26T17:58:03.940Z,62.44
2022-08-26T18:00:35.126Z,62.33
2022-08-26T18:03:03.248Z,62.63
2022-08-26T18:05:31.307Z,62.07
2022-08-26T18:07:59.254Z,62.27
2022-08-26T18:10:37.331Z,62.13
2022-08-26T18:13:05.998Z,61.80
2022-08-26T18:15:34.012Z,62.11
2022-08-26T18:18:02.037Z,62.54
2022-08-26T18:20:29.976Z,62.05
2022-08-26T18:22:57.948Z,61.84
2022-08-26T18:25:28.178Z,62.32
2022-08-26T18:27:56.180Z,62.14
2022-08-26T18:30:24.278Z,62.17
2022-08-26T18:32:53.263Z,62.00
2022-08-26T18:35:21.999Z,62.18
2022-08-26T18:37:53.029Z,62.82
2022-08-26T18:40:22.974Z,62.78
2022-08-26T18:42:54.106Z,62.40
2022-08-26T18:45:23.041Z,62.94
2022-08-26T18:47:51.043Z,62.75
2022-08-26T18:50:19.287Z,62.54
2022-08-26T18:52:47.228Z,62.94
2022-08-26T18:55:15.029Z,63.29
2022-08-26T18:57:51.702Z,64.35
2022-08-26T19:00:20.976Z,63.82
2022-08-26T19:02:52.079Z,63.64
2022-08-26T19:05:25.491Z,63.29
2022-08-26T19:07:53.393Z,64.19
2022-08-26T19:10:27.516Z,64.60
2022-08-26T19:13:00.663Z,64.27
2022-08-26T19:15:32.023Z,64.17
2022-08-26T19:17:59.987Z,63.99
2022-08-26T19:20:30.927Z,65.00
2022-08-26T19:23:05.856Z,65.18
2022-08-26T19:25:41.929Z,65.49
2022-08-26T19:28:10.232Z,65.75
2022-08-26T19:30:40.900Z,65.30
2022-08-26T19:33:09.997Z,64.67
2022-08-26T19:35:38.283Z,65.14
2022-08-26T19:38:06.558Z,65.27
2022-08-26T19:40:35.811Z,65.16
2022-08-26T19:43:03.992Z,65.48
2022-08-26T19:45:33.974Z,64.80
2022-08-26T19:48:08.615Z,65.87
2022-08-26T19:50:36.611Z,67.31
2022-08-26T19:53:05.314Z,68.36
2022-08-26T19:55:33.615Z,69.42
2022-08-26T19:58:01.593Z,67.83
2022-08-26T20:00:31.732Z,67.01
2022-08-26T20:03:00.519Z,66.52
2022-08-26T20:05:29.923Z,65.77
2022-08-26T20:07:57.807Z,66.16
2022-08-26T20:10:25.896Z,65.70
2022-08-26T20:12:53.916Z,66.78
2022-08-26T20:15:23.731Z,66.40
2022-08-26T20:17:52.505Z,65.95
2022-08-26T20:20:40.322Z,65.76
2022-08-26T20:23:10.035Z,65.61
2022-08-26T20:25:38.033Z,65.84
2022-08-26T20:28:06.268Z,65.51
2022-08-26T20:30:34.407Z,65.44
2022-08-26T20:33:02.374Z,65.25
2022-08-26T20:35:30.384Z,65.41
2022-08-26T20:37:58.295Z,65.65
2022-08-26T20:40:27.917Z,65.55
2022-08-26T20:42:55.974Z,65.27
2022-08-26T20:45:24.218Z,65.45
2022-08-26T20:47:52.540Z,65.59
2022-08-26T20:50:20.460Z,65.85
2022-08-26T20:52:48.327Z,66.12
2022-08-26T20:55:16.752Z,66.63
2022-08-26T20:57:46.090Z,66.84
2022-08-26T21:00:16.400Z,67.66
2022-08-26T21:02:46.025Z,67.29
2022-08-26T21:05:13.953Z,67.28
2022-08-26T21:07:41.964Z,67.12
2022-08-26T21:10:11.367Z,66.98
2022-08-26T21:12:39.360Z,66.84
2022-08-26T21:15:09.918Z,67.26
2022-08-26T21:17:37.868Z,67.05
2022-08-26T21:20:06.412Z,67.22
2022-08-26T21:22:34.403Z,66.87
2022-08-26T21:25:02.492Z,66.62
2022-08-26T21:27:30.425Z,67.09
2022-08-26T21:30:03.010Z,66.67
2022-08-26T21:32:33.903Z,66.28
2022-08-26T21:35:02.074Z,66.39
2022-08-26T21:37:30.288Z,65.99
2022-08-26T21:40:01.943Z,65.90
2022-08-26T21:42:33.386Z,66.13
2022-08-26T21:45:01.886Z,66.07
2022-08-26T21:47:32.698Z,66.65
2022-08-26T21:50:02.458Z,66.48
2022-08-26T21:52:30.324Z,66.77
2022-08-26T21:55:02.820Z,66.94
2022-08-26T21:57:31.057Z,66.83
2022-08-26T21:59:59.108Z,67.17
2022-08-26T22:02:27.278Z,66.63
2022-08-26T22:04:56.398Z,66.33
2022-08-26T22:07:25.697Z,66.57
2022-08-26T22:09:56.511Z,66.40
2022-08-26T22:12:27.060Z,66.56
2022-08-26T22:15:04.986Z,66.43
2022-08-26T22:17:32.919Z,66.22
2022-08-26T22:20:00.830Z,66.23
2022-08-26T22:22:30.053Z,66.15
2022-08-26T22:25:01.040Z,67.03
2022-08-26T22:27:29.323Z,66.76
2022-08-26T22:29:57.795Z,67.09
2022-08-26T22:32:25.743Z,67.15
2022-08-26T22:34:53.688Z,66.93
2022-08-26T22:37:24.352Z,66.57
2022-08-26T22:39:53.827Z,66.65
2022-08-26T22:42:22.415Z,66.99
2022-08-26T22:44:50.358Z,67.10
2022-08-26T22:47:18.582Z,67.09
2022-08-26T22:49:46.687Z,67.07
2022-08-26T22:52:14.536Z,67.11
2022-08-26T22:54:42.503Z,66.99
2022-08-26T22:57:12.085Z,66.87
2022-08-26T22:59:40.524Z,66.68
2022-08-26T23:02:11.110Z,66.87
2022-08-26T23:04:40.993Z,66.96
2022-08-26T23:07:08.957Z,67.21
2022-08-26T23:09:36.962Z,67.71
2022-08-26T23:12:05.869Z,67.70
2022-08-26T23:14:35.217Z,67.81
2022-08-26T23:17:03.350Z,67.67
2022-08-26T23:19:31.268Z,67.30
2022-08-26T23:21:59.149Z,67.81
2022-08-26T23:24:26.950Z,67.72
2022-08-26T23:26:54.863Z,67.69
2022-08-26T23:29:22.758Z,67.13
2022-08-26T23:31:53.141Z,67.66
2022-08-26T23:34:53.145Z,67.64
2022-08-26T23:37:21.160Z,68.19
2022-08-26T23:39:50.846Z,68.05
2022-08-26T23:42:18.886Z,68.59
2022-08-26T23:44:46.805Z,68.82
2022-08-26T23:47:16.312Z,68.29
2022-08-26T23:49:44.329Z,68.21
2022-08-26T23:52:30.525Z,67.82
2022-08-26T23:54:58.477Z,67.89
2022-08-26T23:57:27.133Z,67.90
2022-08-26T23:59:55.165Z,67.91
